Time;durP1;ratioP1;P1;durP2;ratioP2;P2;SDS_P1;SDS_P2;PMS_P1;PMS_P2;Temp;Humidity;BMP_temperature;BMP_pressure;BME280_temperature;BME280_humidity;BME280_pressure;Samples;Min_cycle;Max_cycle;Signal;HPM_P1;HPM_P2
2022/09/19 00:00:40;;;;;;;1.67;0.80;;;;;;;10.70;80.87;98825.19;5038296;28;20232;-61
2022/09/19 00:03:06;;;;;;;1.33;0.83;;;;;;;10.63;81.60;98815.34;5040882;28;20233;-62
2022/09/19 00:05:33;;;;;;;3.13;0.70;;;;;;;10.62;81.39;98818.91;5053498;28;20621;-62
2022/09/19 00:08:00;;;;;;;3.33;0.80;;;;;;;10.62;82.97;98818.09;5053375;28;20697;-62
2022/09/19 00:10:28;;;;;;;1.37;0.70;;;;;;;10.58;84.04;98825.41;5047030;28;20230;-62
2022/09/19 00:12:55;;;;;;;3.43;0.90;;;;;;;10.54;82.17;98831.06;5058995;28;20238;-62
2022/09/19 00:15:22;;;;;;;2.60;0.73;;;;;;;10.53;84.78;98826.81;5062727;28;20251;-62
2022/09/19 00:17:51;;;;;;;1.77;0.87;;;;;;;10.51;84.89;98826.13;5074342;28;20591;-62
2022/09/19 00:20:17;;;;;;;1.23;0.70;;;;;;;10.47;84.52;98823.81;5061980;28;20231;-62
2022/09/19 00:24:45;;;;;;;2.03;0.60;;;;;;;10.46;83.58;98837.84;5059344;28;20228;-62
2022/09/19 00:25:30;;;;;;;1.70;0.80;;;;;;;10.50;86.21;98851.41;5062975;28;20225;-61
2022/09/19 00:27:57;;;;;;;3.70;0.70;;;;;;;10.48;85.61;98835.06;5059454;28;20232;-61
2022/09/19 00:30:23;;;;;;;1.17;0.90;;;;;;;10.42;86.07;98844.31;5061706;28;20223;-61
2022/09/19 00:32:54;;;;;;;2.03;0.70;;;;;;;10.39;82.82;98846.34;5057067;28;20717;-61
2022/09/19 00:35:21;;;;;;;1.53;0.53;;;;;;;10.33;84.36;98843.34;5061958;28;20232;-61
2022/09/19 00:37:47;;;;;;;2.03;0.80;;;;;;;10.28;82.58;98842.13;5057950;28;20227;-61
2022/09/19 00:40:14;;;;;;;2.00;0.50;;;;;;;10.18;82.30;98845.59;5078159;28;20279;-61
2022/09/19 00:42:41;;;;;;;2.90;0.60;;;;;;;10.02;83.33;98842.78;5058903;28;20227;-61
2022/09/19 00:45:14;;;;;;;1.17;0.70;;;;;;;9.84;84.80;98840.09;5059920;28;20228;-61
2022/09/19 00:47:45;;;;;;;3.30;0.63;;;;;;;9.77;82.81;98834.59;5074800;28;20446;-61
2022/09/19 00:50:21;;;;;;;1.30;0.50;;;;;;;9.62;86.06;98842.03;5060792;28;20797;-61
2022/09/19 00:52:50;;;;;;;0.80;0.50;;;;;;;9.47;86.75;98849.47;5056294;28;20220;-61
2022/09/19 00:55:18;;;;;;;0.60;0.43;;;;;;;9.23;88.62;98847.25;5061050;28;20558;-61
2022/09/19 00:58:07;;;;;;;3.30;0.70;;;;;;;9.03;89.70;98852.44;5074554;28;20229;-61
2022/09/19 01:00:34;;;;;;;1.60;0.50;;;;;;;8.81;90.01;98850.91;5054910;28;20248;-61
2022/09/19 01:03:02;;;;;;;2.13;0.67;;;;;;;8.65;90.81;98849.63;5051056;28;20231;-61
2022/09/19 01:05:41;;;;;;;2.00;0.60;;;;;;;8.53;91.44;98858.50;5061561;28;20309;-61
2022/09/19 01:08:23;;;;;;;1.70;0.50;;;;;;;8.33;91.84;98863.63;5059737;28;20223;-61
2022/09/19 01:11:18;;;;;;;2.10;0.97;;;;;;;8.22;92.55;98863.72;5073497;28;20231;-61
2022/09/19 01:13:54;;;;;;;0.97;0.53;;;;;;;8.10;93.65;98866.38;5057435;28;20243;-61
2022/09/19 01:16:33;;;;;;;2.10;0.60;;;;;;;7.97;94.42;98863.97;5062285;28;20224;-61
2022/09/19 01:19:12;;;;;;;1.97;0.80;;;;;;;7.91;95.17;98861.06;5074432;28;20322;-61
2022/09/19 01:21:49;;;;;;;2.63;0.60;;;;;;;7.78;95.22;98853.47;5059205;28;20587;-61
2022/09/19 01:24:49;;;;;;;1.63;0.70;;;;;;;7.65;95.26;98854.50;5075308;28;20229;-61
2022/09/19 01:27:40;;;;;;;2.63;0.57;;;;;;;7.49;95.48;98865.28;5038813;28;20227;-62
2022/09/19 01:30:10;;;;;;;1.77;0.40;;;;;;;7.35;96.35;98868.22;5038644;28;20628;-61
2022/09/19 01:32:49;;;;;;;1.13;0.57;;;;;;;7.24;96.30;98863.88;5038749;28;20227;-61
2022/09/19 01:35:17;;;;;;;3.50;0.70;;;;;;;7.18;97.30;98866.97;5043144;28;20773;-61
2022/09/19 01:37:48;;;;;;;2.07;0.60;;;;;;;7.16;98.18;98877.47;5038082;28;20706;-61
2022/09/19 01:40:18;;;;;;;5.70;0.70;;;;;;;7.18;98.01;98879.94;5046451;28;20281;-61
2022/09/19 01:42:55;;;;;;;0.60;0.40;;;;;;;7.11;98.55;98879.63;5056809;28;20237;-62
2022/09/19 01:45:30;;;;;;;2.23;0.53;;;;;;;7.03;98.94;98885.41;5060702;28;20219;-62
2022/09/19 01:48:05;;;;;;;1.77;0.50;;;;;;;6.99;99.68;98888.38;5056801;28;20222;-62
2022/09/19 01:50:46;;;;;;;1.07;0.63;;;;;;;6.89;99.85;98877.91;5077252;28;20308;-62
2022/09/19 01:53:32;;;;;;;1.83;0.60;;;;;;;6.83;99.61;98881.81;5056176;28;20226;-62
2022/09/19 01:56:28;;;;;;;0.60;0.53;;;;;;;6.74;99.98;98880.75;5058588;28;20234;-62
2022/09/19 01:59:02;;;;;;;2.07;0.60;;;;;;;6.73;100.00;98883.47;5063795;28;20222;-62
2022/09/19 02:01:55;;;;;;;2.73;0.70;;;;;;;6.66;100.00;98888.31;5050244;28;20625;-62
2022/09/19 02:04:27;;;;;;;6.57;0.93;;;;;;;6.65;100.00;98890.06;5080565;28;20873;-62
2022/09/19 02:07:01;;;;;;;1.33;0.50;;;;;;;6.56;100.00;98885.59;5074808;28;20785;-62
2022/09/19 02:09:34;;;;;;;1.20;0.63;;;;;;;6.45;100.00;98895.97;5064176;28;20545;-62
2022/09/19 02:12:04;;;;;;;1.57;0.60;;;;;;;6.47;100.00;98902.69;5077600;28;20550;-62
2022/09/19 02:14:38;;;;;;;2.67;1.20;;;;;;;6.43;100.00;98897.84;5060789;28;20226;-62
2022/09/19 02:17:08;;;;;;;1.00;0.60;;;;;;;6.39;100.00;98901.63;5063662;28;20628;-63
2022/09/19 02:19:42;;;;;;;4.20;0.70;;;;;;;6.42;100.00;98899.63;5078606;28;20559;-63
2022/09/19 02:22:14;;;;;;;3.03;1.40;;;;;;;6.39;100.00;98897.28;5079773;28;20669;-62
2022/09/19 02:24:45;;;;;;;2.83;0.70;;;;;;;6.33;100.00;98895.16;5060697;28;20218;-63
2022/09/19 02:27:17;;;;;;;2.20;0.60;;;;;;;6.37;100.00;98903.50;5080302;28;20227;-63
2022/09/19 02:29:48;;;;;;;1.50;0.90;;;;;;;6.41;100.00;98910.09;5076836;28;20219;-63
2022/09/19 02:32:20;;;;;;;1.77;0.80;;;;;;;6.40;100.00;98906.69;5063594;28;20321;-63
2022/09/19 02:34:51;;;;;;;1.27;0.70;;;;;;;6.47;100.00;98912.22;5060770;28;20221;-62
2022/09/19 02:37:25;;;;;;;1.57;0.80;;;;;;;6.45;100.00;98909.78;5063232;28;20238;-62
2022/09/19 02:40:01;;;;;;;3.20;0.90;;;;;;;6.34;100.00;98912.34;5061118;28;20238;-62
2022/09/19 02:42:49;;;;;;;5.60;1.00;;;;;;;6.32;100.00;98909.91;5076913;28;20319;-62
2022/09/19 02:45:26;;;;;;;1.33;1.00;;;;;;;6.23;100.00;98915.78;5082372;28;20249;-62
2022/09/19 02:48:06;;;;;;;3.00;0.80;;;;;;;6.25;100.00;98908.72;5060843;28;20231;-62
2022/09/19 02:50:43;;;;;;;3.13;0.80;;;;;;;6.26;100.00;98907.75;5058690;28;20228;-63
2022/09/19 02:53:16;;;;;;;1.10;0.70;;;;;;;6.17;100.00;98906.69;5062168;28;20226;-63
2022/09/19 02:55:49;;;;;;;5.10;0.70;;;;;;;6.21;100.00;98909.88;5046443;28;20222;-63
2022/09/19 02:58:17;;;;;;;2.33;0.80;;;;;;;6.16;100.00;98912.00;5048954;28;20252;-63
2022/09/19 03:04:14;;;;;;;2.33;0.80;;;;;;;6.28;100.00;98916.25;5718674;23;20233;-50
2022/09/19 03:06:55;;;;;;;2.87;0.93;;;;;;;6.31;100.00;98916.03;4960959;28;20232;-53
2022/09/19 03:09:25;;;;;;;5.67;0.80;;;;;;;6.49;100.00;98925.91;4979195;28;20305;-50
2022/09/19 03:12:02;;;;;;;1.47;1.10;;;;;;;6.53;100.00;98926.50;4961682;28;21751;-52
2022/09/19 03:14:30;;;;;;;1.80;1.20;;;;;;;6.65;100.00;98917.78;4977426;28;20286;-53
2022/09/19 03:17:00;;;;;;;2.93;0.83;;;;;;;6.82;100.00;98928.63;4983041;23;20251;-51
2022/09/19 03:19:30;;;;;;;1.97;1.00;;;;;;;6.96;100.00;98927.56;4977036;28;20229;-52
2022/09/19 03:21:58;;;;;;;4.27;0.80;;;;;;;7.06;100.00;98931.88;4975900;28;20884;-52
2022/09/19 03:24:29;;;;;;;2.77;0.77;;;;;;;7.18;100.00;98940.50;4973660;28;20237;-52
2022/09/19 03:26:56;;;;;;;4.97;1.00;;;;;;;7.27;100.00;98936.34;4982971;28;20340;-55
2022/09/19 03:29:24;;;;;;;4.47;1.10;;;;;;;7.32;100.00;98936.78;4975076;28;20224;-54
2022/09/19 03:31:54;;;;;;;2.67;1.03;;;;;;;7.41;100.00;98952.59;4980468;28;20287;-55
2022/09/19 03:34:22;;;;;;;4.90;1.07;;;;;;;7.46;100.00;98946.06;4973469;28;20236;-52
2022/09/19 03:36:52;;;;;;;2.17;0.90;;;;;;;7.52;100.00;98949.97;4980627;28;20265;-53
2022/09/19 03:39:23;;;;;;;3.43;1.10;;;;;;;7.66;100.00;98946.25;4984009;28;20217;-54
2022/09/19 03:41:51;;;;;;;6.23;1.30;;;;;;;7.73;100.00;98941.38;4970002;28;20243;-52
2022/09/19 03:44:19;;;;;;;2.57;1.00;;;;;;;7.73;100.00;98946.59;4987971;28;20718;-54
2022/09/19 03:46:46;;;;;;;1.57;0.97;;;;;;;7.70;100.00;98950.25;4971454;28;20777;-51
2022/09/19 03:49:14;;;;;;;2.83;1.20;;;;;;;7.75;100.00;98952.47;4977236;28;20221;-55
2022/09/19 03:51:41;;;;;;;3.00;0.90;;;;;;;7.72;100.00;98952.72;4972729;28;20222;-52
2022/09/19 03:54:11;;;;;;;3.13;0.83;;;;;;;7.66;100.00;98944.47;4999407;28;20235;-51
2022/09/19 03:56:44;;;;;;;6.93;1.10;;;;;;;7.72;100.00;98953.53;4980143;28;20251;-53
2022/09/19 03:59:12;;;;;;;4.53;1.27;;;;;;;7.73;100.00;98957.78;5000043;28;20687;-54
2022/09/19 04:01:41;;;;;;;1.67;0.97;;;;;;;7.72;100.00;98961.34;4968395;28;20230;-54
2022/09/19 04:04:09;;;;;;;1.70;0.90;;;;;;;7.67;100.00;98964.31;4983260;28;20232;-52
2022/09/19 04:06:41;;;;;;;4.07;0.80;;;;;;;7.66;100.00;98967.03;4997000;28;20229;-52
2022/09/19 04:09:10;;;;;;;3.00;0.80;;;;;;;7.66;100.00;98975.66;4999676;28;20230;-52
2022/09/19 04:11:41;;;;;;;4.37;1.07;;;;;;;7.76;100.00;98975.72;4971189;28;20225;-54
2022/09/19 04:14:08;;;;;;;1.33;0.73;;;;;;;7.82;100.00;98979.63;4977271;28;20226;-52
2022/09/19 04:16:35;;;;;;;1.97;0.90;;;;;;;7.81;100.00;98981.38;4981449;28;20241;-55
2022/09/19 04:19:09;;;;;;;3.40;0.70;;;;;;;7.82;100.00;98982.22;4974988;28;20226;-52
2022/09/19 04:21:49;;;;;;;3.23;0.77;;;;;;;7.83;100.00;98984.69;4971796;28;20912;-55
2022/09/19 04:24:53;;;;;;;10.33;5.07;;;;;;;7.90;100.00;98979.00;4919490;29;20228;-54
2022/09/19 04:27:40;;;;;;;40.60;22.93;;;;;;;7.98;100.00;98979.19;4981090;28;20237;-54
2022/09/19 04:30:08;;;;;;;4.40;1.70;;;;;;;7.95;100.00;98982.03;4984648;28;20306;-55
2022/09/19 04:32:36;;;;;;;8.23;3.60;;;;;;;7.89;100.00;98983.38;4996267;28;20709;-54
2022/09/19 04:35:03;;;;;;;5.83;2.53;;;;;;;7.86;100.00;98993.19;4984215;28;20309;-54
2022/09/19 04:37:30;;;;;;;6.23;1.73;;;;;;;7.81;100.00;98991.78;4984332;28;20250;-52
2022/09/19 04:40:08;;;;;;;3.60;1.57;;;;;;;7.82;100.00;99000.41;4992699;28;20235;-54
2022/09/19 04:42:35;;;;;;;7.63;4.10;;;;;;;7.83;100.00;99005.47;4979946;28;20280;-53
2022/09/19 04:45:04;;;;;;;11.37;4.63;;;;;;;7.86;100.00;98996.63;4975921;28;20224;-52
2022/09/19 04:47:41;;;;;;;6.23;3.50;;;;;;;7.87;100.00;98998.28;4970170;28;20218;-53
2022/09/19 04:50:09;;;;;;;2.27;1.30;;;;;;;7.86;100.00;98994.03;4975629;28;20227;-54
2022/09/19 04:52:38;;;;;;;9.20;1.53;;;;;;;7.84;100.00;99003.72;4981303;28;20223;-54
2022/09/19 04:55:08;;;;;;;4.53;1.00;;;;;;;7.87;100.00;99007.81;4983589;28;20245;-55
2022/09/19 04:57:35;;;;;;;4.37;1.20;;;;;;;7.89;100.00;99006.78;4970239;28;20221;-52
2022/09/19 05:00:13;;;;;;;3.00;0.80;;;;;;;7.88;100.00;99014.69;4973529;28;20230;-52
2022/09/19 05:02:42;;;;;;;4.03;0.80;;;;;;;7.83;100.00;99010.66;4979365;28;20233;-52
2022/09/19 05:05:09;;;;;;;8.70;1.77;;;;;;;7.86;100.00;99013.97;4970407;28;20229;-52
2022/09/19 05:07:37;;;;;;;22.40;14.23;;;;;;;7.83;100.00;99015.88;4970207;28;20454;-52
2022/09/19 05:10:09;;;;;;;5.10;2.70;;;;;;;7.82;100.00;99024.63;4998914;28;20596;-52
2022/09/19 05:12:37;;;;;;;4.57;1.57;;;;;;;7.83;100.00;99031.47;4995534;28;20225;-54
2022/09/19 05:15:05;;;;;;;5.27;1.43;;;;;;;7.77;100.00;99018.97;4974263;28;20229;-54
2022/09/19 05:17:32;;;;;;;5.97;2.17;;;;;;;7.67;100.00;99031.03;4987957;28;20233;-53
2022/09/19 05:19:59;;;;;;;4.53;2.60;;;;;;;7.63;100.00;99029.63;4979986;28;20579;-54
2022/09/19 05:22:29;;;;;;;5.60;2.10;;;;;;;7.62;100.00;99035.78;4997794;28;20581;-54
2022/09/19 05:25:00;;;;;;;3.40;1.57;;;;;;;7.64;100.00;99031.28;4969618;28;20332;-55
2022/09/19 05:27:32;;;;;;;7.43;1.90;;;;;;;7.62;100.00;99036.63;4972485;28;20226;-52
2022/09/19 05:29:58;;;;;;;5.60;1.40;;;;;;;7.63;100.00;99042.63;4978509;28;20613;-52
2022/09/19 05:32:28;;;;;;;5.53;1.70;;;;;;;7.67;100.00;99046.63;4983699;28;20703;-55
2022/09/19 05:35:21;;;;;;;5.63;1.70;;;;;;;7.75;100.00;99044.25;4978243;28;20721;-53
2022/09/19 05:38:01;;;;;;;3.67;1.30;;;;;;;7.81;100.00;99051.56;5000164;28;20569;-53
2022/09/19 05:40:53;;;;;;;3.87;1.63;;;;;;;7.89;100.00;99050.13;4972553;28;20297;-55
2022/09/19 05:43:28;;;;;;;2.83;1.90;;;;;;;7.98;100.00;99047.59;4986579;28;20237;-52
2022/09/19 05:45:57;;;;;;;5.77;1.47;;;;;;;8.10;100.00;99051.00;4984319;28;20237;-54
2022/09/19 05:48:26;;;;;;;3.47;1.47;;;;;;;8.13;100.00;99061.13;4976846;28;20581;-55
2022/09/19 05:50:54;;;;;;;4.27;1.30;;;;;;;8.31;100.00;99050.19;4999275;28;21599;-52
2022/09/19 05:56:50;;;;;;;2.50;1.10;;;;;;;8.52;100.00;99059.78;4971537;28;20229;-52
2022/09/19 05:59:19;;;;;;;4.43;1.30;;;;;;;8.59;100.00;99054.91;4999640;28;20313;-53
2022/09/19 06:01:47;;;;;;;6.30;1.53;;;;;;;8.68;100.00;99059.38;4973705;28;20231;-53
2022/09/19 06:04:34;;;;;;;3.97;1.10;;;;;;;8.71;100.00;99059.91;4971955;28;20335;-58
2022/09/19 06:07:00;;;;;;;4.20;1.40;;;;;;;8.79;100.00;99069.69;4976205;28;20218;-55
2022/09/19 06:09:28;;;;;;;4.87;1.43;;;;;;;8.86;100.00;99070.00;4977920;28;20279;-52
2022/09/19 06:11:58;;;;;;;2.83;1.30;;;;;;;8.95;100.00;99073.63;4973544;28;20242;-54
2022/09/19 06:14:27;;;;;;;3.83;1.03;;;;;;;9.05;99.52;99071.88;4985092;28;20239;-54
2022/09/19 06:16:55;;;;;;;5.40;1.27;;;;;;;9.16;99.58;99074.38;4982245;28;20712;-54
2022/09/19 06:19:24;;;;;;;4.97;1.20;;;;;;;9.25;99.50;99071.94;4986091;28;20237;-54
2022/09/19 06:22:03;;;;;;;2.90;1.23;;;;;;;9.37;98.60;99081.31;4999003;28;20744;-55
2022/09/19 06:24:30;;;;;;;2.20;1.37;;;;;;;9.51;97.56;99084.53;4974032;28;20238;-52
2022/09/19 06:26:58;;;;;;;3.33;1.50;;;;;;;9.55;94.61;99083.31;4981668;28;20224;-52
2022/09/19 06:29:28;;;;;;;6.80;1.27;;;;;;;9.63;95.06;99090.44;4999475;28;20631;-54
2022/09/19 06:32:20;;;;;;;3.17;1.23;;;;;;;9.60;91.64;99092.34;4977774;28;20259;-52
2022/09/19 06:34:49;;;;;;;5.83;1.17;;;;;;;9.70;91.65;99091.56;4971203;28;20228;-51
2022/09/19 06:37:16;;;;;;;4.07;1.10;;;;;;;9.72;91.39;99092.25;4980358;28;20255;-54
2022/09/19 06:39:44;;;;;;;6.23;1.00;;;;;;;9.71;89.80;99088.00;4982216;28;20630;-51
2022/09/19 06:42:30;;;;;;;8.87;1.60;;;;;;;9.73;90.29;99099.13;4977484;28;20333;-51
2022/09/19 06:45:28;;;;;;;8.37;1.60;;;;;;;9.61;90.97;99098.41;4912807;28;20280;-55
2022/09/19 06:47:59;;;;;;;2.60;1.00;;;;;;;9.63;89.48;99103.47;4998403;28;20231;-53
2022/09/19 06:50:45;;;;;;;5.90;1.30;;;;;;;9.67;88.96;99097.03;4972363;28;20233;-52
2022/09/19 06:53:11;;;;;;;7.33;1.33;;;;;;;9.70;89.86;99105.44;4983942;28;20698;-53
2022/09/19 06:55:38;;;;;;;7.03;1.10;;;;;;;9.78;90.56;99106.56;4974681;28;20591;-53
2022/09/19 06:58:12;;;;;;;8.60;1.20;;;;;;;9.85;86.58;99099.84;4968610;28;20238;-51
2022/09/19 07:00:43;;;;;;;9.27;0.87;;;;;;;9.89;85.25;99107.25;4973155;28;20235;-52
2022/09/19 07:03:14;;;;;;;1.93;0.73;;;;;;;9.95;85.83;99108.50;4999599;28;20722;-51
2022/09/19 07:05:47;;;;;;;5.03;1.00;;;;;;;9.91;86.62;99114.97;4973849;28;20218;-52
2022/09/19 07:08:20;;;;;;;2.50;0.90;;;;;;;10.02;86.37;99120.06;4984538;28;20698;-53
2022/09/19 07:10:48;;;;;;;5.90;1.30;;;;;;;10.12;84.52;99120.06;4969611;28;20231;-51
2022/09/19 07:13:16;;;;;;;4.33;0.90;;;;;;;10.01;85.85;99130.59;4982887;28;20247;-53
2022/09/19 07:15:46;;;;;;;2.47;0.90;;;;;;;9.98;85.54;99128.28;4967820;28;20243;-53
2022/09/19 07:18:14;;;;;;;3.87;1.20;;;;;;;10.08;85.43;99130.88;4983844;28;20321;-53
2022/09/19 07:20:42;;;;;;;4.77;1.17;;;;;;;10.11;85.10;99133.22;4972036;28;20234;-54
2022/09/19 07:23:32;;;;;;;8.33;1.40;;;;;;;10.21;85.78;99133.25;4977205;28;20774;-53
2022/09/19 07:26:07;;;;;;;3.77;1.30;;;;;;;10.40;84.03;99128.06;4981825;28;20230;-54
2022/09/19 07:28:36;;;;;;;9.67;1.93;;;;;;;10.48;82.64;99130.81;4980885;28;20622;-54
2022/09/19 07:31:05;;;;;;;3.53;0.87;;;;;;;10.24;82.73;99138.19;4974065;28;20248;-52
2022/09/19 07:33:37;;;;;;;6.00;1.73;;;;;;;10.40;81.75;99142.91;4972323;28;20230;-53
2022/09/19 07:36:07;;;;;;;6.10;1.37;;;;;;;10.44;83.50;99147.72;4982912;28;20343;-54
2022/09/19 07:38:35;;;;;;;6.97;1.30;;;;;;;10.54;83.92;99154.72;4973172;28;20237;-55
2022/09/19 07:41:04;;;;;;;7.20;1.03;;;;;;;10.67;82.67;99155.25;4985006;28;20690;-51
2022/09/19 07:43:36;;;;;;;5.10;0.80;;;;;;;10.78;82.94;99157.72;4972397;28;20245;-52
2022/09/19 07:46:34;;;;;;;7.67;1.27;;;;;;;10.89;81.69;99158.53;4984709;28;20245;-52
2022/09/19 07:49:12;;;;;;;6.77;1.10;;;;;;;10.97;80.69;99166.50;4979494;28;20255;-54
2022/09/19 07:51:51;;;;;;;5.53;1.10;;;;;;;11.20;79.19;99163.56;4982140;28;20235;-52
2022/09/19 07:54:18;;;;;;;4.00;1.60;;;;;;;11.31;78.14;99165.19;4970716;28;20239;-52
2022/09/19 07:56:47;;;;;;;4.37;1.20;;;;;;;11.54;76.45;99170.06;4979621;28;20304;-55
2022/09/19 07:59:15;;;;;;;6.53;1.20;;;;;;;11.27;76.98;99169.03;4990899;28;20747;-53
2022/09/19 08:01:51;;;;;;;6.53;1.60;;;;;;;11.41;76.83;99175.63;4979708;28;20242;-54
2022/09/19 08:04:38;;;;;;;4.03;1.33;;;;;;;11.45;77.73;99179.59;4979818;28;20290;-51
2022/09/19 08:07:05;;;;;;;4.80;1.50;;;;;;;11.46;77.12;99184.66;4990095;28;20237;-51
2022/09/19 08:09:33;;;;;;;5.23;1.20;;;;;;;11.57;75.46;99185.47;4980107;28;20273;-52
2022/09/19 08:12:10;;;;;;;3.83;1.40;;;;;;;11.59;76.99;99192.22;4981447;28;20320;-52
2022/09/19 08:14:48;;;;;;;2.40;1.30;;;;;;;11.74;74.43;99186.47;4987497;28;20236;-51
2022/09/19 08:17:16;;;;;;;8.90;1.30;;;;;;;11.86;75.95;99193.19;4999295;28;20275;-55
2022/09/19 08:19:46;;;;;;;5.33;1.50;;;;;;;12.04;74.67;99195.03;4971309;28;20231;-54
2022/09/19 08:22:13;;;;;;;7.20;1.87;;;;;;;12.24;73.04;99200.97;4971219;28;20238;-54
2022/09/19 08:24:48;;;;;;;4.90;1.30;;;;;;;12.28;75.10;99204.16;4979594;28;20350;-53
2022/09/19 08:27:15;;;;;;;9.63;1.83;;;;;;;12.41;75.50;99207.22;4983406;28;20231;-54
2022/09/19 08:29:43;;;;;;;6.07;1.40;;;;;;;12.10;71.77;99207.53;4971981;28;20227;-52
2022/09/19 08:32:14;;;;;;;7.27;1.67;;;;;;;12.42;70.96;99206.25;4972785;28;20288;-55
2022/09/19 08:34:42;;;;;;;7.83;2.50;;;;;;;12.52;71.39;99206.19;4978826;28;20307;-52
2022/09/19 08:37:09;;;;;;;7.40;1.87;;;;;;;12.49;70.68;99209.09;4998427;28;20306;-55
2022/09/19 08:40:15;;;;;;;7.50;1.70;;;;;;;12.61;73.13;99215.75;4978201;28;20251;-54
2022/09/19 08:42:38;;;;;;;4.33;1.20;;;;;;;12.49;70.22;99216.94;4988792;28;20236;-54
2022/09/19 08:45:11;;;;;;;4.63;2.00;;;;;;;12.73;71.08;99218.16;4980885;28;20225;-51
2022/09/19 08:47:41;;;;;;;7.43;1.50;;;;;;;12.89;68.73;99212.22;4987499;28;20616;-53
2022/09/19 08:50:16;;;;;;;11.57;1.33;;;;;;;12.90;68.84;99213.88;4974215;28;20235;-51
2022/09/19 08:52:48;;;;;;;4.20;1.17;;;;;;;13.20;66.80;99217.88;4980811;28;20518;-56
2022/09/19 08:55:34;;;;;;;8.67;2.33;;;;;;;13.28;68.16;99211.88;4981222;28;20235;-55
2022/09/19 08:58:18;;;;;;;4.73;1.63;;;;;;;13.26;66.63;99212.00;4982097;28;20224;-52
2022/09/19 09:01:11;;;;;;;5.37;1.30;;;;;;;13.49;64.99;99213.34;4976868;28;20324;-55
2022/09/19 09:04:17;;;;;;;6.43;1.20;;;;;;;13.38;64.99;99227.47;4980860;28;20264;-52
2022/09/19 09:07:01;;;;;;;6.37;2.13;;;;;;;13.48;64.16;99222.19;4971299;28;20221;-56
2022/09/19 09:09:38;;;;;;;8.53;1.50;;;;;;;13.33;65.28;99219.25;4983343;28;20228;-54
2022/09/19 09:12:14;;;;;;;8.07;1.20;;;;;;;13.63;66.73;99222.41;4971301;28;20236;-52
2022/09/19 09:14:53;;;;;;;9.43;1.30;;;;;;;13.52;65.44;99211.22;4988324;28;20306;-52
2022/09/19 09:17:31;;;;;;;5.27;1.10;;;;;;;13.85;65.87;99219.25;5001955;23;20229;-53
2022/09/19 09:20:17;;;;;;;6.23;1.63;;;;;;;14.16;61.96;99215.25;4988394;28;20767;-51
2022/09/19 09:22:50;;;;;;;10.63;1.30;;;;;;;14.13;62.64;99211.16;5004517;28;20237;-52
2022/09/19 09:25:32;;;;;;;6.30;1.20;;;;;;;14.34;62.49;99212.50;4972732;28;20228;-52
2022/09/19 09:28:07;;;;;;;3.87;1.40;;;;;;;14.14;61.24;99219.84;4970949;28;20533;-52
2022/09/19 09:30:51;;;;;;;8.47;1.37;;;;;;;13.77;64.05;99216.59;4986798;28;20307;-52
2022/09/19 09:33:24;;;;;;;3.67;1.50;;;;;;;14.07;63.43;99209.16;4988263;28;20247;-52
2022/09/19 09:36:01;;;;;;;5.37;1.50;;;;;;;14.47;60.95;99220.75;4987133;28;20234;-52
2022/09/19 09:38:33;;;;;;;5.97;1.60;;;;;;;14.39;62.44;99223.34;4976052;28;20258;-51
2022/09/19 09:44:30;;;;;;;5.70;1.43;;;;;;;14.68;61.37;99219.47;4947698;28;20717;-51
2022/09/19 09:47:07;;;;;;;6.78;1.60;;;;;;;14.79;63.97;99220.16;4964201;28;20504;-51
2022/09/19 09:49:39;;;;;;;8.97;1.43;;;;;;;14.82;62.57;99217.22;4966742;28;20221;-52
2022/09/19 09:52:20;;;;;;;7.30;1.57;;;;;;;14.44;62.20;99212.38;4974253;28;20234;-53
2022/09/19 09:57:54;;;;;;;4.17;1.53;;;;;;;14.89;62.75;99218.19;4960841;28;20241;-53
2022/09/19 10:03:35;;;;;;;5.90;1.20;;;;;;;14.99;58.95;99207.50;4971148;28;20234;-51
2022/09/19 10:06:23;;;;;;;9.27;1.23;;;;;;;14.86;58.95;99208.00;4962158;28;20220;-51
2022/09/19 10:08:58;;;;;;;10.53;1.50;;;;;;;14.68;61.01;99214.22;4980161;28;20230;-52
2022/09/19 10:11:37;;;;;;;4.87;1.60;;;;;;;14.95;59.80;99207.03;4972871;28;20226;-52
2022/09/19 10:14:08;;;;;;;9.90;2.37;;;;;;;15.22;60.67;99206.84;4984317;28;20237;-52
2022/09/19 10:16:36;;;;;;;5.93;1.83;;;;;;;15.02;59.74;99207.19;4985496;28;20231;-51
2022/09/19 10:19:27;;;;;;;9.13;1.50;;;;;;;15.32;58.54;99203.06;4965888;28;20729;-54
2022/09/19 10:21:57;;;;;;;7.57;1.90;;;;;;;15.41;56.67;99210.91;4968600;28;20233;-52
2022/09/19 10:24:45;;;;;;;4.57;1.33;;;;;;;15.32;56.62;99203.06;4972847;28;20235;-52
2022/09/19 10:27:22;;;;;;;4.83;1.37;;;;;;;15.19;58.07;99203.53;4987515;28;20317;-54
2022/09/19 10:29:51;;;;;;;10.70;1.43;;;;;;;15.23;59.76;99204.06;4981397;28;20227;-53
2022/09/19 10:32:23;;;;;;;11.00;1.90;;;;;;;15.47;59.56;99203.16;4967803;28;20230;-51
2022/09/19 10:35:27;;;;;;;7.73;1.87;;;;;;;15.55;56.98;99201.50;4970137;28;20588;-53
2022/09/19 10:38:00;;;;;;;4.73;1.10;;;;;;;15.49;58.32;99198.56;4969510;28;20233;-54
2022/09/19 10:40:29;;;;;;;7.33;1.40;;;;;;;15.45;57.66;99197.25;4967264;28;20751;-52
2022/09/19 10:42:59;;;;;;;7.73;1.90;;;;;;;15.77;56.96;99199.94;4982768;28;20282;-54
2022/09/19 10:45:33;;;;;;;5.97;1.27;;;;;;;16.02;55.11;99200.69;4970880;28;20224;-52
2022/09/19 10:48:09;;;;;;;5.57;1.20;;;;;;;15.76;57.51;99200.94;4970036;28;20228;-52
2022/09/19 10:50:43;;;;;;;4.83;1.30;;;;;;;15.92;56.02;99207.97;4979265;28;20244;-52
2022/09/19 10:53:19;;;;;;;5.70;1.33;;;;;;;15.86;54.71;99190.22;4972204;28;20226;-52
2022/09/19 10:55:47;;;;;;;11.27;1.40;;;;;;;15.86;56.61;99196.28;4965649;28;20227;-53
2022/09/19 10:58:19;;;;;;;9.90;1.33;;;;;;;15.97;58.24;99200.38;4972213;28;20230;-51
2022/09/19 11:00:55;;;;;;;10.33;1.27;;;;;;;16.18;58.25;99202.44;4965493;28;20718;-52
2022/09/19 11:03:25;;;;;;;4.37;1.20;;;;;;;15.87;55.83;99197.97;4985217;28;20230;-52
2022/09/19 11:06:05;;;;;;;7.50;1.30;;;;;;;16.43;55.82;99201.47;4970285;28;20235;-52
2022/09/19 11:08:44;;;;;;;5.43;1.20;;;;;;;16.74;55.91;99206.66;4981683;28;20314;-51
2022/09/19 11:11:45;;;;;;;4.63;1.00;;;;;;;16.40;54.78;99204.44;4984803;28;20230;-51
2022/09/19 11:14:31;;;;;;;10.67;1.70;;;;;;;16.30;55.44;99202.03;4964801;28;20250;-54
2022/09/19 11:17:20;;;;;;;7.30;1.50;;;;;;;16.11;54.97;99198.00;4979090;28;20232;-51
2022/09/19 11:20:08;;;;;;;7.13;1.40;;;;;;;16.12;55.13;99204.91;4965402;28;20236;-52
2022/09/19 11:22:57;;;;;;;3.43;1.10;;;;;;;16.16;55.52;99200.94;4963996;28;20678;-53
2022/09/19 11:25:29;;;;;;;7.67;1.33;;;;;;;15.86;56.15;99203.38;4962685;28;20284;-55
2022/09/19 11:28:15;;;;;;;6.47;1.47;;;;;;;16.14;56.39;99209.03;4986565;28;20293;-51
2022/09/19 11:30:53;;;;;;;8.63;1.43;;;;;;;16.44;55.58;99213.63;4972214;28;20572;-52
2022/09/19 11:33:47;;;;;;;6.67;1.30;;;;;;;16.14;53.61;99206.41;4964252;28;20242;-53
2022/09/19 11:36:39;;;;;;;6.03;1.70;;;;;;;15.62;56.10;99202.47;4968741;28;20235;-54
2022/09/19 11:39:13;;;;;;;8.30;1.33;;;;;;;15.82;56.71;99200.25;4963644;28;20292;-53
2022/09/19 11:41:55;;;;;;;9.77;1.00;;;;;;;16.00;55.67;99201.88;4972770;28;20253;-52
2022/09/19 11:44:45;;;;;;;6.13;1.37;;;;;;;16.15;58.06;99201.94;4979416;28;20232;-52
2022/09/19 11:47:28;;;;;;;6.03;1.40;;;;;;;16.20;55.46;99204.88;4966844;28;20236;-52
2022/09/19 11:50:20;;;;;;;11.57;1.40;;;;;;;15.98;56.49;99198.59;4967729;28;20305;-53
2022/09/19 11:53:01;;;;;;;8.37;1.20;;;;;;;16.30;55.27;99200.22;4966207;28;20584;-52
2022/09/19 11:55:43;;;;;;;4.73;1.20;;;;;;;16.45;54.80;99199.47;4982291;28;20233;-51
2022/09/19 11:58:16;;;;;;;7.80;1.10;;;;;;;16.16;55.11;99195.69;4967556;28;20687;-54
2022/09/19 12:00:53;;;;;;;6.57;1.70;;;;;;;16.27;56.31;99182.13;4965382;28;20376;-55
2022/09/19 12:03:35;;;;;;;7.63;1.60;;;;;;;15.98;56.38;99188.84;4969335;28;20335;-53
2022/09/19 12:06:30;;;;;;;9.53;1.30;;;;;;;15.88;55.91;99175.91;4968588;28;20810;-54
2022/09/19 12:09:12;;;;;;;7.67;1.37;;;;;;;15.96;57.97;99161.88;4981582;28;20641;-53
2022/09/19 12:11:45;;;;;;;7.33;1.10;;;;;;;15.74;56.89;99169.53;4965353;28;20219;-54
2022/09/19 12:14:21;;;;;;;5.20;1.17;;;;;;;15.66;57.15;99153.78;4964249;28;20231;-54
2022/09/19 12:16:53;;;;;;;8.03;1.40;;;;;;;15.16;58.29;99142.59;4967832;28;20353;-51
2022/09/19 12:19:25;;;;;;;14.23;2.93;;;;;;;15.13;58.78;99133.22;4982914;28;20313;-52
2022/09/19 12:21:56;;;;;;;4.90;1.03;;;;;;;15.05;58.20;99138.50;4963553;28;21484;-52
2022/09/19 12:24:59;;;;;;;7.63;1.27;;;;;;;15.24;58.16;99139.09;4968815;28;20315;-52